Time;durP1;ratioP1;P1;durP2;ratioP2;P2;SDS_P1;SDS_P2;PMS_P1;PMS_P2;Temp;Humidity;BMP_temperature;BMP_pressure;BME280_temperature;BME280_humidity;BME280_pressure;Samples;Min_cycle;Max_cycle;Signal;HPM_P1;HPM_P2
2022/12/05 00:01:30;;;;;;;11.95;11.35;;;;;;;;;;5051324;28;20070;-65
2022/12/05 00:03:57;;;;;;;12.10;11.50;;;;;;;;;;5059377;28;20024;-64
2022/12/05 00:06:23;;;;;;;11.95;11.35;;;;;;;;;;5050453;28;20480;-65
2022/12/05 00:08:48;;;;;;;11.70;11.20;;;;;;;;;;5057637;28;20060;-66
2022/12/05 00:11:15;;;;;;;12.43;11.82;;;;;;;;;;5057650;28;20901;-65
2022/12/05 00:13:41;;;;;;;11.70;11.18;;;;;;;;;;5061907;28;20020;-66
2022/12/05 00:16:08;;;;;;;11.85;11.30;;;;;;;;;;5061058;28;20063;-65
2022/12/05 00:18:33;;;;;;;11.85;11.25;;;;;;;;;;5055153;28;20149;-65
2022/12/05 00:20:59;;;;;;;12.98;12.27;;;;;;;;;;5053163;28;20556;-66
2022/12/05 00:23:24;;;;;;;12.15;11.55;;;;;;;;;;5059784;28;20029;-66
2022/12/05 00:25:49;;;;;;;11.98;11.38;;;;;;;;;;5060915;28;20021;-65
2022/12/05 00:28:14;;;;;;;12.40;11.80;;;;;;;;;;5063549;28;20112;-65
2022/12/05 00:30:40;;;;;;;12.30;11.70;;;;;;;;;;5066304;28;20074;-65
2022/12/05 00:33:05;;;;;;;11.98;11.38;;;;;;;;;;5058465;28;20495;-65
2022/12/05 00:35:32;;;;;;;12.05;11.45;;;;;;;;;;5060703;28;20616;-65
2022/12/05 00:37:57;;;;;;;11.55;11.05;;;;;;;;;;5058212;28;20009;-65
2022/12/05 00:40:22;;;;;;;12.68;12.00;;;;;;;;;;5056967;28;20040;-66
2022/12/05 00:42:49;;;;;;;12.07;11.48;;;;;;;;;;5062980;28;20503;-65
2022/12/05 00:45:14;;;;;;;11.70;11.20;;;;;;;;;;5059307;28;20017;-66
2022/12/05 00:47:39;;;;;;;11.35;10.85;;;;;;;;;;5056278;28;20040;-66
2022/12/05 00:50:05;;;;;;;11.40;10.90;;;;;;;;;;5065784;28;20427;-66
2022/12/05 00:52:30;;;;;;;11.93;11.32;;;;;;;;;;5063762;28;20431;-66
2022/12/05 00:54:55;;;;;;;11.85;11.27;;;;;;;;;;5061418;28;20472;-66
2022/12/05 00:57:21;;;;;;;11.90;11.30;;;;;;;;;;5060360;28;20016;-66
2022/12/05 00:59:46;;;;;;;11.98;11.38;;;;;;;;;;5066147;28;20383;-65
2022/12/05 01:02:11;;;;;;;11.63;11.02;;;;;;;;;;5060337;28;20067;-65
2022/12/05 01:04:37;;;;;;;12.52;11.82;;;;;;;;;;5064941;28;20490;-66
2022/12/05 01:07:02;;;;;;;11.60;11.05;;;;;;;;;;5066173;28;20021;-65
2022/12/05 01:09:27;;;;;;;11.85;11.25;;;;;;;;;;5061267;28;20033;-65
2022/12/05 01:11:53;;;;;;;12.05;11.45;;;;;;;;;;5057604;28;20037;-65
2022/12/05 01:14:20;;;;;;;11.93;11.32;;;;;;;;;;5055121;28;20377;-66
2022/12/05 01:16:46;;;;;;;12.07;11.48;;;;;;;;;;5056028;28;20388;-65
2022/12/05 01:19:30;;;;;;;12.05;11.45;;;;;;;;;;5063062;28;20017;-66
2022/12/05 01:21:56;;;;;;;11.32;10.82;;;;;;;;;;5061841;28;20031;-66
2022/12/05 01:24:22;;;;;;;11.75;11.20;;;;;;;;;;5056166;28;20024;-65
2022/12/05 01:26:47;;;;;;;11.85;11.25;;;;;;;;;;5061721;28;20051;-65
2022/12/05 01:29:14;;;;;;;12.18;11.57;;;;;;;;;;5061456;28;20032;-65
2022/12/05 01:31:40;;;;;;;11.68;11.07;;;;;;;;;;5055909;28;20385;-65
2022/12/05 01:34:06;;;;;;;11.60;11.02;;;;;;;;;;5059844;28;20055;-65
2022/12/05 01:36:32;;;;;;;11.93;11.32;;;;;;;;;;5063156;28;20029;-65
2022/12/05 01:38:57;;;;;;;11.38;10.88;;;;;;;;;;5058697;28;20582;-66
2022/12/05 01:41:24;;;;;;;11.77;11.18;;;;;;;;;;5059492;28;20056;-65
2022/12/05 01:43:53;;;;;;;11.55;10.95;;;;;;;;;;5049131;28;20021;-65
2022/12/05 01:46:18;;;;;;;12.05;11.45;;;;;;;;;;5058319;28;20062;-65
2022/12/05 01:48:44;;;;;;;11.32;10.80;;;;;;;;;;5067446;28;20048;-65
2022/12/05 01:51:09;;;;;;;11.07;10.57;;;;;;;;;;5061836;28;20021;-65
2022/12/05 01:53:35;;;;;;;11.85;11.25;;;;;;;;;;5062474;28;20061;-65
2022/12/05 01:56:00;;;;;;;11.60;11.10;;;;;;;;;;5066055;28;20017;-65
2022/12/05 01:58:30;;;;;;;11.85;11.25;;;;;;;;;;5056129;28;20033;-64
2022/12/05 02:00:55;;;;;;;11.15;10.65;;;;;;;;;;5054738;28;20372;-65
2022/12/05 02:03:20;;;;;;;12.15;11.55;;;;;;;;;;5065515;28;20028;-66
2022/12/05 02:05:47;;;;;;;11.55;11.02;;;;;;;;;;5063759;28;20032;-64
2022/12/05 02:08:13;;;;;;;11.50;11.00;;;;;;;;;;5058900;28;20017;-65
2022/12/05 02:10:40;;;;;;;11.70;11.10;;;;;;;;;;5063270;28;20490;-64
2022/12/05 02:13:20;;;;;;;11.65;11.05;;;;;;;;;;5058427;28;20041;-64
2022/12/05 02:15:51;;;;;;;12.82;12.13;;;;;;;;;;5057710;28;20468;-65
2022/12/05 02:18:20;;;;;;;11.65;11.05;;;;;;;;;;5056698;28;20028;-65
2022/12/05 02:20:57;;;;;;;12.32;11.70;;;;;;;;;;5055938;28;20103;-66
2022/12/05 02:23:26;;;;;;;11.10;10.60;;;;;;;;;;5059814;28;20444;-65
2022/12/05 02:25:51;;;;;;;11.93;11.32;;;;;;;;;;5057231;28;20395;-66
2022/12/05 02:28:34;;;;;;;11.77;11.20;;;;;;;;;;5059344;28;20017;-66
2022/12/05 02:31:10;;;;;;;11.95;11.35;;;;;;;;;;5055341;28;20020;-65
2022/12/05 02:33:45;;;;;;;11.95;11.35;;;;;;;;;;5049862;28;20118;-65
2022/12/05 02:36:13;;;;;;;12.50;11.90;;;;;;;;;;5059545;28;20155;-65
2022/12/05 02:38:43;;;;;;;11.80;11.20;;;;;;;;;;5052095;28;20062;-65
2022/12/05 02:41:25;;;;;;;12.43;11.82;;;;;;;;;;5059653;28;20109;-65
2022/12/05 02:43:57;;;;;;;12.23;11.63;;;;;;;;;;5054909;28;20115;-65
2022/12/05 02:46:24;;;;;;;12.23;11.63;;;;;;;;;;5065725;28;20032;-65
2022/12/05 02:48:53;;;;;;;11.85;11.25;;;;;;;;;;5054581;28;20033;-65
2022/12/05 02:51:20;;;;;;;12.57;11.98;;;;;;;;;;5050442;28;20029;-65
2022/12/05 02:53:46;;;;;;;11.10;10.60;;;;;;;;;;5059636;28;21186;-65
2022/12/05 02:56:11;;;;;;;11.30;10.80;;;;;;;;;;5060850;28;20032;-65
2022/12/05 02:58:39;;;;;;;12.77;12.07;;;;;;;;;;5052331;28;20044;-65
2022/12/05 03:01:05;;;;;;;11.93;11.32;;;;;;;;;;5057792;28;20017;-66
2022/12/05 03:03:32;;;;;;;12.18;11.57;;;;;;;;;;5060734;28;20078;-65
2022/12/05 03:06:15;;;;;;;12.10;11.50;;;;;;;;;;5054089;28;20021;-65
2022/12/05 03:08:43;;;;;;;11.40;10.85;;;;;;;;;;5055417;28;20055;-65
2022/12/05 03:11:09;;;;;;;12.05;11.45;;;;;;;;;;5057209;28;20025;-65
2022/12/05 03:13:42;;;;;;;11.60;11.00;;;;;;;;;;5057889;28;20549;-65
2022/12/05 03:16:11;;;;;;;12.10;11.50;;;;;;;;;;5065270;28;20125;-65
2022/12/05 03:18:39;;;;;;;12.15;11.55;;;;;;;;;;5065314;28;20253;-65
2022/12/05 03:21:10;;;;;;;13.20;12.40;;;;;;;;;;5048840;28;20021;-65
2022/12/05 03:23:45;;;;;;;11.52;11.00;;;;;;;;;;5054316;28;20037;-64
2022/12/05 03:26:13;;;;;;;11.88;11.27;;;;;;;;;;5057752;28;20024;-66
2022/12/05 03:28:57;;;;;;;11.77;11.18;;;;;;;;;;5063515;28;20016;-65
2022/12/05 03:31:36;;;;;;;12.10;11.50;;;;;;;;;;5066048;28;20024;-66
2022/12/05 03:34:02;;;;;;;11.55;11.05;;;;;;;;;;5056980;28;20112;-66
2022/12/05 03:36:31;;;;;;;11.63;11.02;;;;;;;;;;5054325;28;20468;-66
2022/12/05 03:39:09;;;;;;;12.07;11.48;;;;;;;;;;5051403;28;20024;-68
2022/12/05 03:41:45;;;;;;;11.60;11.00;;;;;;;;;;5060438;28;20596;-64
2022/12/05 03:44:10;;;;;;;11.60;11.02;;;;;;;;;;5055088;28;20025;-66
2022/12/05 03:46:38;;;;;;;12.13;11.52;;;;;;;;;;5062806;28;20021;-64
2022/12/05 03:49:08;;;;;;;12.00;11.40;;;;;;;;;;5059269;28;20025;-64
2022/12/05 03:51:36;;;;;;;11.18;10.68;;;;;;;;;;5053383;28;20075;-65
2022/12/05 03:54:15;;;;;;;11.35;10.82;;;;;;;;;;5058714;28;20021;-65
2022/12/05 03:56:45;;;;;;;11.85;11.25;;;;;;;;;;5057065;28;20017;-65
2022/12/05 03:59:15;;;;;;;11.93;11.32;;;;;;;;;;5054460;28;20020;-65
2022/12/05 04:01:41;;;;;;;11.73;11.13;;;;;;;;;;5061602;28;20017;-65
2022/12/05 04:04:18;;;;;;;11.18;10.68;;;;;;;;;;5064075;28;20025;-65
2022/12/05 04:06:46;;;;;;;11.55;10.95;;;;;;;;;;5060317;28;20020;-65
2022/12/05 04:09:14;;;;;;;12.18;11.57;;;;;;;;;;5058454;28;20051;-65
2022/12/05 04:11:42;;;;;;;11.68;11.07;;;;;;;;;;5061871;28;20174;-65
2022/12/05 04:14:12;;;;;;;11.65;11.05;;;;;;;;;;5065410;28;20024;-65
2022/12/05 04:19:21;;;;;;;12.30;11.60;;;;;;;;;;5061606;28;20116;-64
2022/12/05 04:21:48;;;;;;;11.45;10.85;;;;;;;;;;5058395;28;20044;-65
2022/12/05 04:27:20;;;;;;;11.82;11.23;;;;;;;;;;5066326;28;20028;-65
2022/12/05 04:30:06;;;;;;;11.65;11.05;;;;;;;;;;5063120;28;20017;-64
2022/12/05 04:32:40;;;;;;;12.15;11.55;;;;;;;;;;5065276;28;20028;-66
2022/12/05 04:35:10;;;;;;;11.35;10.75;;;;;;;;;;5062170;28;20048;-64
2022/12/05 04:37:39;;;;;;;12.00;11.40;;;;;;;;;;5056959;28;20119;-65
2022/12/05 04:40:11;;;;;;;11.60;11.00;;;;;;;;;;5059712;28;20071;-65
2022/12/05 04:42:37;;;;;;;11.88;11.27;;;;;;;;;;5059322;28;20041;-65
2022/12/05 04:45:05;;;;;;;11.65;11.05;;;;;;;;;;5050244;28;20066;-65
2022/12/05 04:47:35;;;;;;;11.43;10.88;;;;;;;;;;5048777;28;20023;-66
2022/12/05 04:50:01;;;;;;;11.93;11.32;;;;;;;;;;5061807;28;20048;-65
2022/12/05 04:52:27;;;;;;;12.10;11.50;;;;;;;;;;5063000;28;20060;-66
2022/12/05 04:55:13;;;;;;;10.95;10.45;;;;;;;;;;5066435;28;20013;-66
2022/12/05 04:57:48;;;;;;;12.18;11.55;;;;;;;;;;5067312;28;20029;-66
2022/12/05 05:00:14;;;;;;;12.75;12.05;;;;;;;;;;5059684;28;20499;-65
2022/12/05 05:02:45;;;;;;;11.27;10.73;;;;;;;;;;5063472;28;20029;-66
2022/12/05 05:05:12;;;;;;;12.10;11.40;;;;;;;;;;5063550;28;20103;-67
2022/12/05 05:07:42;;;;;;;12.18;11.52;;;;;;;;;;5057977;28;20165;-66
2022/12/05 05:10:08;;;;;;;12.20;11.52;;;;;;;;;;5052860;28;20017;-66
2022/12/05 05:12:33;;;;;;;11.77;11.18;;;;;;;;;;5060789;28;20086;-66
2022/12/05 05:14:58;;;;;;;11.52;10.93;;;;;;;;;;5054590;28;20468;-64
2022/12/05 05:17:24;;;;;;;11.80;11.20;;;;;;;;;;5061814;28;20486;-65
2022/12/05 05:19:49;;;;;;;11.55;10.95;;;;;;;;;;5054968;28;20028;-65
2022/12/05 05:22:14;;;;;;;12.50;11.80;;;;;;;;;;5058007;28;20024;-66
2022/12/05 05:24:39;;;;;;;11.95;11.35;;;;;;;;;;5057782;28;20502;-66
2022/12/05 05:27:05;;;;;;;13.38;12.60;;;;;;;;;;5059738;28;20032;-65
2022/12/05 05:29:30;;;;;;;11.90;11.30;;;;;;;;;;5052117;28;20017;-65
2022/12/05 05:31:55;;;;;;;12.68;11.98;;;;;;;;;;5047920;28;20056;-65
2022/12/05 05:34:21;;;;;;;11.80;11.20;;;;;;;;;;5058235;28;20112;-65
2022/12/05 05:36:50;;;;;;;13.18;12.38;;;;;;;;;;5058660;28;20055;-66
2022/12/05 05:39:15;;;;;;;11.90;11.30;;;;;;;;;;5062399;28;20028;-66
2022/12/05 05:41:41;;;;;;;12.77;12.07;;;;;;;;;;5054314;28;20112;-66
2022/12/05 05:44:06;;;;;;;11.82;11.23;;;;;;;;;;5060251;28;20059;-66
2022/12/05 05:46:33;;;;;;;12.80;12.10;;;;;;;;;;5059098;28;20021;-66
2022/12/05 05:48:58;;;;;;;11.95;11.35;;;;;;;;;;5063197;28;20484;-66
2022/12/05 05:51:28;;;;;;;12.70;12.00;;;;;;;;;;5055637;28;20060;-66
2022/12/05 05:53:54;;;;;;;12.98;12.23;;;;;;;;;;5051924;28;20072;-66
2022/12/05 05:56:19;;;;;;;12.93;12.18;;;;;;;;;;5065317;28;20063;-66
2022/12/05 05:58:45;;;;;;;11.95;11.35;;;;;;;;;;5056075;28;20047;-66
2022/12/05 06:01:15;;;;;;;12.55;11.85;;;;;;;;;;5053635;28;20024;-67
2022/12/05 06:03:40;;;;;;;11.57;10.98;;;;;;;;;;5053195;28;20531;-67
2022/12/05 06:06:07;;;;;;;11.75;11.15;;;;;;;;;;5057837;28;20111;-66
2022/12/05 06:08:33;;;;;;;13.27;12.48;;;;;;;;;;5058741;28;20479;-67
2022/12/05 06:10:58;;;;;;;11.57;10.98;;;;;;;;;;5056574;28;20074;-65
2022/12/05 06:13:24;;;;;;;12.05;11.45;;;;;;;;;;5056612;28;20032;-65
2022/12/05 06:15:50;;;;;;;11.50;10.90;;;;;;;;;;5061284;28;20017;-65
2022/12/05 06:18:15;;;;;;;12.40;11.70;;;;;;;;;;5054044;28;20119;-65
2022/12/05 06:20:40;;;;;;;11.98;11.38;;;;;;;;;;5054233;28;20021;-66
2022/12/05 06:23:06;;;;;;;11.73;11.13;;;;;;;;;;5053260;28;20107;-65
2022/12/05 06:25:31;;;;;;;12.55;11.85;;;;;;;;;;5055241;28;20365;-66
2022/12/05 06:27:56;;;;;;;13.10;12.40;;;;;;;;;;5054549;28;20059;-66
2022/12/05 06:30:22;;;;;;;13.43;12.73;;;;;;;;;;5057835;28;20500;-65
2022/12/05 06:32:47;;;;;;;12.57;11.88;;;;;;;;;;5055094;28;20075;-66
2022/12/05 06:35:15;;;;;;;13.30;12.55;;;;;;;;;;5057021;28;20025;-66
2022/12/05 06:37:42;;;;;;;11.73;11.13;;;;;;;;;;5058064;28;20021;-66
2022/12/05 06:40:07;;;;;;;11.80;11.20;;;;;;;;;;5051823;28;20085;-66
2022/12/05 06:42:33;;;;;;;12.43;11.82;;;;;;;;;;5061373;28;20013;-66
2022/12/05 06:44:58;;;;;;;12.65;11.95;;;;;;;;;;5059598;28;20023;-66
2022/12/05 06:47:23;;;;;;;12.77;12.07;;;;;;;;;;5057450;28;20494;-64
2022/12/05 06:49:48;;;;;;;12.27;11.68;;;;;;;;;;5058412;28;20051;-66
2022/12/05 06:52:14;;;;;;;12.95;12.25;;;;;;;;;;5059110;28;20020;-66
2022/12/05 06:54:39;;;;;;;12.30;11.70;;;;;;;;;;5061441;28;20471;-66
2022/12/05 06:57:04;;;;;;;12.40;11.70;;;;;;;;;;5059855;28;20104;-66
2022/12/05 06:59:30;;;;;;;12.45;11.85;;;;;;;;;;5055134;28;20023;-66
2022/12/05 07:01:55;;;;;;;12.40;11.70;;;;;;;;;;5058012;28;20099;-66
2022/12/05 07:04:24;;;;;;;12.35;11.75;;;;;;;;;;5055574;28;20044;-66
2022/12/05 07:06:49;;;;;;;13.32;12.55;;;;;;;;;;5055260;28;20047;-67
2022/12/05 07:09:15;;;;;;;11.60;11.05;;;;;;;;;;5057313;28;20029;-66
2022/12/05 07:11:41;;;;;;;11.73;11.13;;;;;;;;;;5060694;28;20409;-66
2022/12/05 07:14:08;;;;;;;11.13;10.63;;;;;;;;;;5055051;28;20129;-67
2022/12/05 07:16:34;;;;;;;12.25;11.63;;;;;;;;;;5060794;28;20648;-66
2022/12/05 07:18:59;;;;;;;12.15;11.55;;;;;;;;;;5061280;28;20104;-66
2022/12/05 07:21:24;;;;;;;12.05;11.45;;;;;;;;;;5053000;28;20313;-66
2022/12/05 07:23:50;;;;;;;12.45;11.85;;;;;;;;;;5052966;28;20115;-65
2022/12/05 07:26:17;;;;;;;14.50;13.60;;;;;;;;;;5053918;28;20029;-66
2022/12/05 07:28:42;;;;;;;13.15;12.35;;;;;;;;;;5057067;28;20028;-66
2022/12/05 07:31:09;;;;;;;12.68;11.98;;;;;;;;;;5056245;28;20031;-66
2022/12/05 07:33:34;;;;;;;12.07;11.43;;;;;;;;;;5058588;28;20102;-70
2022/12/05 07:36:04;;;;;;;12.60;11.90;;;;;;;;;;5043727;28;20021;-67
2022/12/05 07:38:30;;;;;;;12.20;11.52;;;;;;;;;;5053710;28;20013;-67
2022/12/05 07:40:55;;;;;;;12.15;11.55;;;;;;;;;;5053384;28;20410;-67
2022/12/05 07:43:21;;;;;;;12.15;11.55;;;;;;;;;;5054269;28;20027;-67
2022/12/05 07:45:46;;;;;;;11.90;11.30;;;;;;;;;;5057104;28;20025;-69
2022/12/05 07:48:11;;;;;;;11.88;11.27;;;;;;;;;;5053761;28;20104;-71
2022/12/05 07:50:37;;;;;;;11.85;11.25;;;;;;;;;;5051859;28;20196;-70
2022/12/05 07:53:02;;;;;;;11.25;10.68;;;;;;;;;;5051015;28;20029;-69
2022/12/05 07:55:28;;;;;;;11.88;11.27;;;;;;;;;;5053940;28;20429;-70
2022/12/05 07:57:53;;;;;;;11.90;11.30;;;;;;;;;;5055226;28;20028;-70
2022/12/05 08:00:18;;;;;;;12.07;11.40;;;;;;;;;;5048385;28;20030;-69
2022/12/05 08:02:44;;;;;;;11.77;11.18;;;;;;;;;;5055699;28;20059;-69
2022/12/05 08:05:09;;;;;;;11.73;11.13;;;;;;;;;;5053124;28;20021;-71
2022/12/05 08:07:34;;;;;;;11.70;11.10;;;;;;;;;;5056646;28;20021;-71
2022/12/05 08:10:00;;;;;;;12.32;11.63;;;;;;;;;;5054088;28;20440;-70
2022/12/05 08:12:25;;;;;;;12.13;11.52;;;;;;;;;;5054963;28;20177;-70
2022/12/05 08:14:50;;;;;;;12.30;11.60;;;;;;;;;;5056912;28;20062;-71
2022/12/05 08:17:16;;;;;;;12.20;11.60;;;;;;;;;;5048773;28;20332;-70
2022/12/05 08:19:42;;;;;;;12.48;11.77;;;;;;;;;;5049581;28;20021;-70
2022/12/05 08:22:07;;;;;;;11.88;11.27;;;;;;;;;;5050194;28;20035;-71
2022/12/05 08:24:32;;;;;;;11.65;11.05;;;;;;;;;;5055281;28;20025;-72
2022/12/05 08:26:58;;;;;;;11.77;11.18;;;;;;;;;;5050941;28;20028;-71
2022/12/05 08:29:23;;;;;;;12.48;11.82;;;;;;;;;;5054292;28;20025;-71
2022/12/05 08:31:49;;;;;;;12.27;11.57;;;;;;;;;;5050915;28;20089;-70
2022/12/05 08:34:15;;;;;;;11.73;11.13;;;;;;;;;;5047914;28;20017;-70
2022/12/05 08:36:41;;;;;;;11.75;11.15;;;;;;;;;;5050634;28;20021;-70
2022/12/05 08:39:06;;;;;;;12.73;12.02;;;;;;;;;;5056412;28;20432;-71
2022/12/05 08:41:32;;;;;;;11.85;11.25;;;;;;;;;;5057146;28;20017;-70
2022/12/05 08:43:58;;;;;;;11.93;11.32;;;;;;;;;;5053429;28;20029;-69
2022/12/05 08:46:24;;;;;;;12.15;11.50;;;;;;;;;;5053637;28;20021;-67
2022/12/05 08:48:52;;;;;;;11.60;11.00;;;;;;;;;;5053742;28;20039;-67
2022/12/05 08:51:17;;;;;;;13.68;12.88;;;;;;;;;;5059937;28;20475;-66
2022/12/05 08:53:42;;;;;;;12.77;12.07;;;;;;;;;;5047140;28;20039;-70
2022/12/05 08:56:09;;;;;;;12.52;11.90;;;;;;;;;;5053639;28;20096;-72
2022/12/05 08:58:36;;;;;;;11.73;11.13;;;;;;;;;;5052705;28;20048;-71
2022/12/05 09:01:04;;;;;;;11.82;11.23;;;;;;;;;;5054463;28;20025;-70
2022/12/05 09:03:29;;;;;;;12.52;11.82;;;;;;;;;;5056027;28;20032;-72
2022/12/05 09:06:03;;;;;;;12.57;11.88;;;;;;;;;;5048267;28;20029;-71
2022/12/05 09:08:29;;;;;;;12.35;11.65;;;;;;;;;;5050738;28;20029;-71
2022/12/05 09:10:54;;;;;;;12.05;11.40;;;;;;;;;;5050802;28;20070;-72
2022/12/05 09:13:19;;;;;;;12.38;11.68;;;;;;;;;;5052217;28;20551;-72
2022/12/05 09:15:44;;;;;;;11.95;11.35;;;;;;;;;;5048938;28;20024;-70
2022/12/05 09:18:11;;;;;;;11.95;11.35;;;;;;;;;;5048623;28;20016;-71
2022/12/05 09:20:38;;;;;;;12.38;11.68;;;;;;;;;;5052212;28;20495;-72
2022/12/05 09:23:03;;;;;;;12.38;11.68;;;;;;;;;;5052453;28;20052;-73
2022/12/05 09:25:28;;;;;;;11.85;11.25;;;;;;;;;;5052129;28;20491;-73
2022/12/05 09:27:55;;;;;;;11.30;10.70;;;;;;;;;;5052263;28;20028;-71
2022/12/05 09:30:20;;;;;;;14.40;13.52;;;;;;;;;;5048652;28;20025;-72
2022/12/05 09:32:45;;;;;;;11.23;10.63;;;;;;;;;;5054413;28;20021;-73
2022/12/05 09:35:11;;;;;;;11.52;10.93;;;;;;;;;;5052482;28;20072;-69
2022/12/05 09:37:36;;;;;;;12.15;11.45;;;;;;;;;;5057149;28;20028;-69
2022/12/05 09:40:02;;;;;;;11.00;10.50;;;;;;;;;;5049471;28;20021;-68
2022/12/05 09:42:37;;;;;;;12.52;11.82;;;;;;;;;;5051422;28;20017;-69
2022/12/05 09:45:22;;;;;;;11.75;11.15;;;;;;;;;;5053488;28;20388;-69
2022/12/05 09:47:59;;;;;;;11.65;11.05;;;;;;;;;;5053967;28;20021;-69
2022/12/05 09:50:27;;;;;;;11.73;11.13;;;;;;;;;;5052275;28;20105;-71
2022/12/05 09:52:57;;;;;;;12.45;11.75;;;;;;;;;;5054535;28;20109;-71
2022/12/05 09:55:22;;;;;;;13.00;12.25;;;;;;;;;;5055681;28;20013;-68
2022/12/05 09:57:51;;;;;;;11.75;11.15;;;;;;;;;;5052802;28;20078;-70
2022/12/05 10:00:17;;;;;;;12.25;11.55;;;;;;;;;;5050967;28;20017;-71
2022/12/05 10:03:01;;;;;;;11.07;10.57;;;;;;;;;;5049152;28;20031;-73
2022/12/05 10:05:35;;;;;;;11.30;10.70;;;;;;;;;;5047733;28;20052;-71
2022/12/05 10:08:00;;;;;;;11.63;11.02;;;;;;;;;;5055474;28;21432;-69
2022/12/05 10:10:26;;;;;;;11.63;11.02;;;;;;;;;;5053207;28;20063;-66
2022/12/05 10:12:51;;;;;;;11.02;10.52;;;;;;;;;;5058261;28;20045;-66
2022/12/05 10:15:29;;;;;;;12.88;12.10;;;;;;;;;;5060340;28;20020;-66
2022/12/05 10:18:11;;;;;;;10.85;10.35;;;;;;;;;;5059810;28;20495;-65
2022/12/05 10:20:39;;;;;;;11.43;10.82;;;;;;;;;;5061065;28;20052;-66
2022/12/05 10:23:10;;;;;;;13.32;12.52;;;;;;;;;;5057749;28;22145;-69
2022/12/05 10:25:36;;;;;;;11.45;10.85;;;;;;;;;;5050359;28;20036;-69
2022/12/05 10:28:05;;;;;;;12.25;11.55;;;;;;;;;;5053787;28;20017;-69
2022/12/05 10:30:32;;;;;;;12.50;11.80;;;;;;;;;;5049646;28;20391;-71
2022/12/05 10:33:10;;;;;;;12.57;11.88;;;;;;;;;;5046644;28;20079;-71
2022/12/05 10:35:37;;;;;;;11.63;11.02;;;;;;;;;;5054807;28;20076;-71
2022/12/05 10:38:04;;;;;;;11.95;11.35;;;;;;;;;;5052299;28;20017;-70
2022/12/05 10:40:34;;;;;;;12.18;11.48;;;;;;;;;;5051658;28;20499;-70
2022/12/05 10:43:00;;;;;;;12.00;11.35;;;;;;;;;;5052384;28;20027;-70
2022/12/05 10:45:25;;;;;;;12.20;11.50;;;;;;;;;;5051881;28;20910;-68
2022/12/05 10:47:55;;;;;;;10.95;10.45;;;;;;;;;;5048933;28;20535;-69
2022/12/05 10:50:20;;;;;;;13.20;12.40;;;;;;;;;;5054014;28;20051;-70
2022/12/05 10:52:46;;;;;;;11.10;10.60;;;;;;;;;;5050537;28;20054;-70
2022/12/05 10:55:12;;;;;;;11.82;11.23;;;;;;;;;;5052682;28;20024;-68
2022/12/05 10:57:38;;;;;;;10.90;10.40;;;;;;;;;;5036460;28;20379;-67
2022/12/05 11:00:10;;;;;;;12.18;11.48;;;;;;;;;;5048316;28;20024;-66
2022/12/05 11:02:36;;;;;;;10.95;10.45;;;;;;;;;;5058347;28;20052;-66
2022/12/05 11:05:02;;;;;;;11.95;11.32;;;;;;;;;;5054880;28;20025;-66
2022/12/05 11:07:32;;;;;;;12.20;11.50;;;;;;;;;;5053485;28;20074;-66
2022/12/05 11:09:59;;;;;;;12.80;12.07;;;;;;;;;;5055636;28;20127;-65
2022/12/05 11:12:44;;;;;;;13.35;12.55;;;;;;;;;;5044757;28;20136;-71
2022/12/05 11:15:21;;;;;;;12.65;11.95;;;;;;;;;;5052362;28;20036;-70
2022/12/05 11:17:46;;;;;;;11.57;10.98;;;;;;;;;;5048516;28;20118;-69
2022/12/05 11:20:14;;;;;;;12.63;11.93;;;;;;;;;;5053701;28;20039;-70
2022/12/05 11:22:40;;;;;;;12.80;12.07;;;;;;;;;;5050874;28;20023;-69
2022/12/05 11:25:22;;;;;;;12.48;11.77;;;;;;;;;;5051661;28;20012;-68
2022/12/05 11:27:47;;;;;;;12.13;11.48;;;;;;;;;;5054622;28;20074;-68
2022/12/05 11:30:13;;;;;;;13.52;12.73;;;;;;;;;;5052856;28;20025;-72
2022/12/05 11:32:38;;;;;;;11.43;10.82;;;;;;;;;;5054628;28;20063;-71
2022/12/05 11:35:08;;;;;;;11.82;11.23;;;;;;;;;;5054036;28;20029;-70
2022/12/05 11:37:57;;;;;;;12.88;12.13;;;;;;;;;;5047245;28;20553;-70
2022/12/05 11:40:44;;;;;;;12.25;11.57;;;;;;;;;;5052956;28;20036;-68
2022/12/05 11:43:15;;;;;;;12.52;11.88;;;;;;;;;;5050470;28;20458;-70
2022/12/05 11:45:51;;;;;;;11.90;11.30;;;;;;;;;;5049878;28;20033;-70
2022/12/05 11:48:22;;;;;;;12.77;12.07;;;;;;;;;;5044077;28;20024;-70
2022/12/05 11:51:06;;;;;;;11.77;11.18;;;;;;;;;;5048440;28;20023;-69
2022/12/05 11:53:50;;;;;;;12.02;11.43;;;;;;;;;;5051459;28;20025;-69
2022/12/05 11:56:15;;;;;;;14.02;13.13;;;;;;;;;;5056625;28;20047;-69
2022/12/05 11:58:41;;;;;;;11.35;10.75;;;;;;;;;;5053849;28;20024;-71
2022/12/05 12:01:06;;;;;;;12.23;11.52;;;;;;;;;;5053181;28;20043;-71
2022/12/05 12:03:32;;;;;;;11.95;11.27;;;;;;;;;;5049704;28;20021;-71
2022/12/05 12:06:04;;;;;;;12.25;11.60;;;;;;;;;;5052639;28;20017;-72
2022/12/05 12:08:34;;;;;;;12.50;11.80;;;;;;;;;;5053713;28;20028;-71
2022/12/05 12:11:10;;;;;;;12.23;11.52;;;;;;;;;;5049698;28;20029;-70
2022/12/05 12:14:11;;;;;;;12.02;11.35;;;;;;;;;;5051273;28;20131;-70
2022/12/05 12:16:55;;;;;;;12.23;11.55;;;;;;;;;;4989535;28;20142;-66
2022/12/05 12:19:35;;;;;;;12.43;11.73;;;;;;;;;;5042906;28;20025;-69
2022/12/05 12:22:26;;;;;;;13.10;12.30;;;;;;;;;;5053864;28;20100;-70
2022/12/05 12:25:10;;;;;;;11.18;10.57;;;;;;;;;;5048972;28;20052;-69
2022/12/05 12:27:48;;;;;;;13.20;12.40;;;;;;;;;;5053437;28;20119;-72
2022/12/05 12:30:23;;;;;;;12.18;11.48;;;;;;;;;;5056635;28;20056;-69
2022/12/05 12:32:54;;;;;;;12.30;11.60;;;;;;;;;;5056491;28;20066;-67
2022/12/05 12:35:23;;;;;;;11.80;11.18;;;;;;;;;;5066705;28;20100;-65
2022/12/05 12:37:48;;;;;;;12.95;12.20;;;;;;;;;;5056719;28;20012;-65
2022/12/05 12:40:19;;;;;;;13.63;12.80;;;;;;;;;;5058183;28;20021;-66
2022/12/05 12:43:01;;;;;;;11.63;11.02;;;;;;;;;;5054400;28;20037;-66
2022/12/05 12:45:31;;;;;;;11.98;11.30;;;;;;;;;;5056264;28;20045;-66
2022/12/05 12:48:15;;;;;;;14.82;13.82;;;;;;;;;;5062756;28;20019;-66
2022/12/05 12:50:42;;;;;;;12.15;11.45;;;;;;;;;;5060581;28;20048;-67
2022/12/05 12:53:25;;;;;;;11.07;10.55;;;;;;;;;;5065420;28;20032;-65
2022/12/05 12:56:05;;;;;;;11.02;10.52;;;;;;;;;;5064751;28;20479;-65
2022/12/05 12:58:56;;;;;;;11.25;10.65;;;;;;;;;;5058447;28;20048;-65
2022/12/05 13:01:25;;;;;;;12.32;11.63;;;;;;;;;;5035895;28;20040;-71
2022/12/05 13:04:01;;;;;;;12.35;11.65;;;;;;;;;;5051020;28;20017;-68
2022/12/05 13:06:48;;;;;;;13.27;12.48;;;;;;;;;;5047485;28;20067;-70
2022/12/05 13:09:17;;;;;;;13.00;12.20;;;;;;;;;;5052545;28;20485;-72
2022/12/05 13:11:44;;;;;;;12.40;11.70;;;;;;;;;;5044637;28;20056;-68
2022/12/05 13:14:13;;;;;;;11.40;10.80;;;;;;;;;;5048913;28;20078;-70
2022/12/05 13:16:43;;;;;;;12.85;12.05;;;;;;;;;;5047899;28;20066;-68
2022/12/05 13:19:29;;;;;;;12.68;11.95;;;;;;;;;;5055297;28;20515;-72
2022/12/05 13:21:56;;;;;;;12.40;11.70;;;;;;;;;;5050847;28;20036;-69
2022/12/05 13:24:23;;;;;;;12.68;11.98;;;;;;;;;;5050651;28;20041;-70
2022/12/05 13:26:49;;;;;;;11.30;10.70;;;;;;;;;;5048165;28;20029;-72
2022/12/05 13:29:19;;;;;;;13.18;12.38;;;;;;;;;;5053510;28;20020;-71
2022/12/05 13:31:46;;;;;;;13.32;12.52;;;;;;;;;;5051873;28;20021;-70
2022/12/05 13:34:32;;;;;;;12.52;11.82;;;;;;;;;;5053170;28;20024;-69
2022/12/05 13:42:37;;;;;;;12.38;11.68;;;;;;;;;;5050184;28;20076;-70
2022/12/05 13:45:03;;;;;;;11.93;11.32;;;;;;;;;;5052491;28;20056;-70
2022/12/05 13:47:28;;;;;;;11.18;10.57;;;;;;;;;;5052576;28;20056;-69
2022/12/05 13:49:56;;;;;;;11.73;11.13;;;;;;;;;;5051349;28;20025;-68
2022/12/05 13:52:27;;;;;;;11.18;10.60;;;;;;;;;;5055005;28;20079;-69
2022/12/05 13:55:01;;;;;;;12.65;11.95;;;;;;;;;;5051711;28;20039;-68
2022/12/05 13:57:36;;;;;;;12.52;11.80;;;;;;;;;;5051740;28;20389;-70
2022/12/05 14:00:07;;;;;;;11.88;11.27;;;;;;;;;;5051855;28;21009;-69
2022/12/05 14:02:42;;;;;;;12.75;11.98;;;;;;;;;;5057718;28;20028;-68
2022/12/05 14:05:20;;;;;;;11.57;10.98;;;;;;;;;;5054951;28;20068;-70
2022/12/05 14:07:49;;;;;;;11.90;11.30;;;;;;;;;;5054840;28;20020;-68
2022/12/05 14:10:15;;;;;;;12.10;11.40;;;;;;;;;;5051723;28;20949;-69
2022/12/05 14:12:51;;;;;;;11.77;11.18;;;;;;;;;;5049865;28;20056;-67
2022/12/05 14:15:22;;;;;;;13.27;12.48;;;;;;;;;;5046204;28;20028;-69
2022/12/05 14:17:48;;;;;;;11.60;11.00;;;;;;;;;;5049873;28;20020;-71
2022/12/05 14:20:16;;;;;;;11.80;11.20;;;;;;;;;;5051207;28;20032;-68
2022/12/05 14:22:41;;;;;;;12.55;11.85;;;;;;;;;;5051762;28;20016;-73
2022/12/05 14:25:15;;;;;;;11.90;11.23;;;;;;;;;;5047071;28;20048;-72
2022/12/05 14:27:52;;;;;;;13.30;12.50;;;;;;;;;;5053040;28;20025;-72
2022/12/05 14:30:38;;;;;;;12.90;12.15;;;;;;;;;;5049658;28;20060;-73
2022/12/05 14:33:11;;;;;;;12.38;11.68;;;;;;;;;;5045180;28;20048;-72
2022/12/05 14:35:42;;;;;;;12.40;11.70;;;;;;;;;;5046902;28;20107;-71
2022/12/05 14:38:19;;;;;;;11.75;11.15;;;;;;;;;;5053476;28;20025;-73